KOMA/OMA METAR and TAF weather

Enter ICAO airport designator
Station Type Date Time Source
KOMA METAR 2024/06/16 00:35 UTC NOAA

KOMA 160035Z 21022G32KT 10SM VCTS -RA FEW026 SCT040 BKN100 OVC150 24/20 A2975 RMK AO2 PK WND 15034/0024 WSHFT 0021 RAB13 TSE31 PRESRR OCNL LTGICCG DSNT S P0000 T02440200 $


Station Type Date Time Source
KOMA Decoded METAR 2024/06/16 00:35 UTC NOAA

OMAHA EPPLEY AIRFIELD, NE, United States (KOMA) 41-18N 095-54W 312M
Jun 15, 2024 - 08:35 PM EDT / 2024.06.16 0035 UTC
Wind: from the SSW (210 degrees) at 25 MPH (22 KT) gusting to 37 MPH (32 KT):0
Visibility: 10 mile(s):0
Sky conditions: overcast
Weather: thunder in the vicinity; light rain; Lightning observed
Precipitation last hour: A trace
Temperature: 75.9 F (24.4 C)
Dew Point: 68.0 F (20.0 C)
Relative Humidity: 76%
Pressure (altimeter): 29.75 in. Hg (1007 hPa)
Pressure tendency: rising rapidly
ob: KOMA 160035Z 21022G32KT 10SM VCTS -RA FEW026 SCT040 BKN100 OVC150 24/20 A2975 RMK AO2 PK WND 15034/0024 WSHFT 0021 RAB13 TSE31 PRESRR OCNL LTGICCG DSNT S P0000 T02440200
cycle: 0

Station Type Date Time Source
KOMA TAF 2024/06/15 18:22 UTC NOAA